sensor_id;sensor_type;location;lat;lon;timestamp;P1;durP1;ratioP1;P2;durP2;ratioP2
52512;SDS011;38422;53.172;6.974;2024-01-15T00:00:19;6.72;;;1.00;;
52512;SDS011;38422;53.172;6.974;2024-01-15T00:02:44;9.23;;;1.20;;
52512;SDS011;38422;53.172;6.974;2024-01-15T00:05:10;9.10;;;1.15;;
52512;SDS011;38422;53.172;6.974;2024-01-15T00:07:36;9.05;;;1.10;;
52512;SDS011;38422;53.172;6.974;2024-01-15T00:10:02;10.48;;;1.60;;
52512;SDS011;38422;53.172;6.974;2024-01-15T00:12:28;10.95;;;1.20;;
52512;SDS011;38422;53.172;6.974;2024-01-15T00:14:53;12.65;;;1.25;;
52512;SDS011;38422;53.172;6.974;2024-01-15T00:17:19;10.70;;;1.70;;
52512;SDS011;38422;53.172;6.974;2024-01-15T00:19:45;7.85;;;0.98;;
52512;SDS011;38422;53.172;6.974;2024-01-15T00:22:11;7.53;;;0.77;;
52512;SDS011;38422;53.172;6.974;2024-01-15T00:24:36;5.10;;;0.70;;
52512;SDS011;38422;53.172;6.974;2024-01-15T00:27:02;4.38;;;1.10;;
52512;SDS011;38422;53.172;6.974;2024-01-15T00:29:28;3.50;;;0.40;;
52512;SDS011;38422;53.172;6.974;2024-01-15T00:31:53;2.80;;;0.28;;
52512;SDS011;38422;53.172;6.974;2024-01-15T00:34:19;1.40;;;0.15;;
52512;SDS011;38422;53.172;6.974;2024-01-15T00:36:45;1.55;;;0.20;;
52512;SDS011;38422;53.172;6.974;2024-01-15T00:39:11;1.75;;;0.20;;
52512;SDS011;38422;53.172;6.974;2024-01-15T00:41:36;2.72;;;0.38;;
52512;SDS011;38422;53.172;6.974;2024-01-15T00:44:02;4.25;;;0.60;;
52512;SDS011;38422;53.172;6.974;2024-01-15T00:46:28;6.13;;;0.80;;
52512;SDS011;38422;53.172;6.974;2024-01-15T00:48:54;5.97;;;0.60;;
52512;SDS011;38422;53.172;6.974;2024-01-15T00:51:20;7.55;;;0.77;;
52512;SDS011;38422;53.172;6.974;2024-01-15T00:53:45;3.97;;;0.65;;
52512;SDS011;38422;53.172;6.974;2024-01-15T00:56:11;5.22;;;0.80;;
52512;SDS011;38422;53.172;6.974;2024-01-15T00:58:37;4.65;;;0.60;;
52512;SDS011;38422;53.172;6.974;2024-01-15T01:01:03;4.55;;;0.70;;
52512;SDS011;38422;53.172;6.974;2024-01-15T01:03:28;8.77;;;1.17;;
52512;SDS011;38422;53.172;6.974;2024-01-15T01:05:54;5.07;;;0.90;;
52512;SDS011;38422;53.172;6.974;2024-01-15T01:08:20;5.65;;;0.60;;
52512;SDS011;38422;53.172;6.974;2024-01-15T01:10:46;6.15;;;0.90;;
52512;SDS011;38422;53.172;6.974;2024-01-15T01:13:11;3.78;;;0.70;;
52512;SDS011;38422;53.172;6.974;2024-01-15T01:15:37;5.72;;;0.90;;
52512;SDS011;38422;53.172;6.974;2024-01-15T01:18:03;8.68;;;0.85;;
52512;SDS011;38422;53.172;6.974;2024-01-15T01:20:29;9.75;;;1.10;;
52512;SDS011;38422;53.172;6.974;2024-01-15T01:22:55;3.90;;;0.90;;
52512;SDS011;38422;53.172;6.974;2024-01-15T01:25:21;4.78;;;0.70;;
52512;SDS011;38422;53.172;6.974;2024-01-15T01:27:47;8.90;;;1.00;;
52512;SDS011;38422;53.172;6.974;2024-01-15T01:30:12;8.93;;;1.25;;
52512;SDS011;38422;53.172;6.974;2024-01-15T01:32:38;5.43;;;0.88;;
52512;SDS011;38422;53.172;6.974;2024-01-15T01:35:04;6.45;;;0.80;;
52512;SDS011;38422;53.172;6.974;2024-01-15T01:37:30;8.52;;;0.98;;
52512;SDS011;38422;53.172;6.974;2024-01-15T01:39:55;6.15;;;0.90;;
52512;SDS011;38422;53.172;6.974;2024-01-15T01:42:21;7.05;;;1.15;;
52512;SDS011;38422;53.172;6.974;2024-01-15T01:44:47;6.57;;;0.98;;
52512;SDS011;38422;53.172;6.974;2024-01-15T01:47:12;6.13;;;1.08;;
52512;SDS011;38422;53.172;6.974;2024-01-15T01:49:39;7.82;;;1.13;;
52512;SDS011;38422;53.172;6.974;2024-01-15T01:52:06;8.90;;;1.17;;
52512;SDS011;38422;53.172;6.974;2024-01-15T01:54:34;6.38;;;1.17;;
52512;SDS011;38422;53.172;6.974;2024-01-15T01:57:00;6.07;;;0.98;;
52512;SDS011;38422;53.172;6.974;2024-01-15T01:59:28;5.97;;;0.85;;
52512;SDS011;38422;53.172;6.974;2024-01-15T02:01:55;13.63;;;1.20;;
52512;SDS011;38422;53.172;6.974;2024-01-15T02:04:22;6.53;;;0.98;;
52512;SDS011;38422;53.172;6.974;2024-01-15T02:06:49;11.35;;;1.38;;
52512;SDS011;38422;53.172;6.974;2024-01-15T02:09:16;13.63;;;1.50;;
52512;SDS011;38422;53.172;6.974;2024-01-15T02:11:43;11.55;;;1.23;;
52512;SDS011;38422;53.172;6.974;2024-01-15T02:14:11;10.88;;;1.27;;
52512;SDS011;38422;53.172;6.974;2024-01-15T02:16:37;7.88;;;1.42;;
52512;SDS011;38422;53.172;6.974;2024-01-15T02:19:02;9.65;;;1.20;;
52512;SDS011;38422;53.172;6.974;2024-01-15T02:21:28;7.53;;;1.13;;
52512;SDS011;38422;53.172;6.974;2024-01-15T02:23:57;10.02;;;1.85;;
52512;SDS011;38422;53.172;6.974;2024-01-15T02:26:23;8.02;;;1.30;;
52512;SDS011;38422;53.172;6.974;2024-01-15T02:28:49;8.60;;;1.30;;
52512;SDS011;38422;53.172;6.974;2024-01-15T02:31:16;13.40;;;1.83;;
52512;SDS011;38422;53.172;6.974;2024-01-15T02:33:42;8.15;;;1.35;;
52512;SDS011;38422;53.172;6.974;2024-01-15T02:36:09;11.27;;;1.17;;
52512;SDS011;38422;53.172;6.974;2024-01-15T02:38:35;12.85;;;1.60;;
52512;SDS011;38422;53.172;6.974;2024-01-15T02:41:01;10.70;;;1.05;;
52512;SDS011;38422;53.172;6.974;2024-01-15T02:43:27;10.13;;;1.33;;
52512;SDS011;38422;53.172;6.974;2024-01-15T02:45:52;11.80;;;1.30;;
52512;SDS011;38422;53.172;6.974;2024-01-15T02:48:18;5.50;;;1.00;;
52512;SDS011;38422;53.172;6.974;2024-01-15T02:50:44;7.88;;;1.08;;
52512;SDS011;38422;53.172;6.974;2024-01-15T02:53:09;7.85;;;1.67;;
52512;SDS011;38422;53.172;6.974;2024-01-15T02:55:35;8.32;;;1.38;;
52512;SDS011;38422;53.172;6.974;2024-01-15T02:58:01;7.97;;;1.63;;
52512;SDS011;38422;53.172;6.974;2024-01-15T03:00:26;9.90;;;1.33;;
52512;SDS011;38422;53.172;6.974;2024-01-15T03:02:52;8.90;;;1.20;;
52512;SDS011;38422;53.172;6.974;2024-01-15T03:05:18;12.60;;;1.48;;
52512;SDS011;38422;53.172;6.974;2024-01-15T03:07:43;7.35;;;1.05;;
52512;SDS011;38422;53.172;6.974;2024-01-15T03:10:09;11.45;;;1.52;;
52512;SDS011;38422;53.172;6.974;2024-01-15T03:12:35;10.35;;;1.45;;
52512;SDS011;38422;53.172;6.974;2024-01-15T03:15:01;7.13;;;1.10;;
52512;SDS011;38422;53.172;6.974;2024-01-15T03:17:27;8.85;;;1.00;;
52512;SDS011;38422;53.172;6.974;2024-01-15T03:19:53;7.65;;;1.08;;
52512;SDS011;38422;53.172;6.974;2024-01-15T03:22:19;9.23;;;1.10;;
52512;SDS011;38422;53.172;6.974;2024-01-15T03:24:44;8.07;;;1.33;;
52512;SDS011;38422;53.172;6.974;2024-01-15T03:27:10;7.28;;;0.80;;
52512;SDS011;38422;53.172;6.974;2024-01-15T03:29:36;5.65;;;0.90;;
52512;SDS011;38422;53.172;6.974;2024-01-15T03:32:02;4.60;;;0.70;;
52512;SDS011;38422;53.172;6.974;2024-01-15T03:34:27;7.15;;;0.77;;
52512;SDS011;38422;53.172;6.974;2024-01-15T03:36:53;5.38;;;0.80;;
52512;SDS011;38422;53.172;6.974;2024-01-15T03:39:19;4.32;;;0.77;;
52512;SDS011;38422;53.172;6.974;2024-01-15T03:41:45;5.88;;;0.70;;
52512;SDS011;38422;53.172;6.974;2024-01-15T03:44:10;5.80;;;0.50;;
52512;SDS011;38422;53.172;6.974;2024-01-15T03:46:36;5.20;;;1.02;;
52512;SDS011;38422;53.172;6.974;2024-01-15T03:49:02;5.72;;;0.60;;
52512;SDS011;38422;53.172;6.974;2024-01-15T03:51:27;5.43;;;0.65;;
52512;SDS011;38422;53.172;6.974;2024-01-15T03:53:53;5.65;;;0.70;;
52512;SDS011;38422;53.172;6.974;2024-01-15T03:56:19;4.40;;;0.70;;
52512;SDS011;38422;53.172;6.974;2024-01-15T03:58:44;6.35;;;0.60;;
52512;SDS011;38422;53.172;6.974;2024-01-15T04:01:10;4.28;;;0.57;;
52512;SDS011;38422;53.172;6.974;2024-01-15T04:03:36;4.90;;;0.70;;
52512;SDS011;38422;53.172;6.974;2024-01-15T04:06:02;6.32;;;0.93;;
52512;SDS011;38422;53.172;6.974;2024-01-15T04:08:28;7.28;;;1.00;;
52512;SDS011;38422;53.172;6.974;2024-01-15T04:10:54;8.18;;;1.15;;
52512;SDS011;38422;53.172;6.974;2024-01-15T04:13:20;6.10;;;0.88;;
52512;SDS011;38422;53.172;6.974;2024-01-15T04:15:46;9.15;;;1.27;;
52512;SDS011;38422;53.172;6.974;2024-01-15T04:18:12;10.05;;;1.33;;
52512;SDS011;38422;53.172;6.974;2024-01-15T04:20:37;7.93;;;1.55;;
52512;SDS011;38422;53.172;6.974;2024-01-15T04:23:03;9.63;;;1.65;;
52512;SDS011;38422;53.172;6.974;2024-01-15T04:25:29;9.20;;;1.88;;
52512;SDS011;38422;53.172;6.974;2024-01-15T04:27:55;8.38;;;1.17;;
52512;SDS011;38422;53.172;6.974;2024-01-15T04:30:21;10.77;;;1.58;;
52512;SDS011;38422;53.172;6.974;2024-01-15T04:32:47;13.10;;;2.00;;
52512;SDS011;38422;53.172;6.974;2024-01-15T04:35:12;9.77;;;1.70;;
52512;SDS011;38422;53.172;6.974;2024-01-15T04:37:39;11.70;;;1.42;;
52512;SDS011;38422;53.172;6.974;2024-01-15T04:40:05;11.27;;;1.70;;
52512;SDS011;38422;53.172;6.974;2024-01-15T04:42:31;16.10;;;1.33;;
52512;SDS011;38422;53.172;6.974;2024-01-15T04:44:57;8.65;;;1.23;;
52512;SDS011;38422;53.172;6.974;2024-01-15T04:47:23;12.07;;;1.58;;
52512;SDS011;38422;53.172;6.974;2024-01-15T04:49:49;13.50;;;1.55;;
52512;SDS011;38422;53.172;6.974;2024-01-15T04:52:14;16.17;;;1.75;;
52512;SDS011;38422;53.172;6.974;2024-01-15T04:54:40;12.38;;;1.70;;
52512;SDS011;38422;53.172;6.974;2024-01-15T04:57:06;10.18;;;1.35;;
52512;SDS011;38422;53.172;6.974;2024-01-15T04:59:32;11.50;;;1.52;;
52512;SDS011;38422;53.172;6.974;2024-01-15T05:01:57;7.40;;;1.30;;
52512;SDS011;38422;53.172;6.974;2024-01-15T05:04:23;5.97;;;0.90;;
52512;SDS011;38422;53.172;6.974;2024-01-15T05:06:50;7.38;;;1.10;;
52512;SDS011;38422;53.172;6.974;2024-01-15T05:09:16;10.27;;;1.40;;
52512;SDS011;38422;53.172;6.974;2024-01-15T05:11:43;5.65;;;1.00;;
52512;SDS011;38422;53.172;6.974;2024-01-15T05:14:08;6.25;;;0.93;;
52512;SDS011;38422;53.172;6.974;2024-01-15T05:16:34;5.88;;;0.70;;
52512;SDS011;38422;53.172;6.974;2024-01-15T05:19:02;5.82;;;0.80;;
52512;SDS011;38422;53.172;6.974;2024-01-15T05:21:28;5.63;;;0.82;;
52512;SDS011;38422;53.172;6.974;2024-01-15T05:23:54;9.52;;;1.65;;
52512;SDS011;38422;53.172;6.974;2024-01-15T05:26:20;7.68;;;1.23;;
52512;SDS011;38422;53.172;6.974;2024-01-15T05:28:45;6.70;;;0.93;;
52512;SDS011;38422;53.172;6.974;2024-01-15T05:31:11;6.65;;;0.85;;
52512;SDS011;38422;53.172;6.974;2024-01-15T05:33:37;9.20;;;1.05;;
52512;SDS011;38422;53.172;6.974;2024-01-15T05:36:02;9.10;;;0.85;;
52512;SDS011;38422;53.172;6.974;2024-01-15T05:38:28;5.43;;;0.90;;
52512;SDS011;38422;53.172;6.974;2024-01-15T05:40:54;6.75;;;0.90;;
52512;SDS011;38422;53.172;6.974;2024-01-15T05:43:20;7.80;;;0.90;;
52512;SDS011;38422;53.172;6.974;2024-01-15T05:45:45;6.72;;;0.90;;
52512;SDS011;38422;53.172;6.974;2024-01-15T05:48:11;8.77;;;1.25;;
52512;SDS011;38422;53.172;6.974;2024-01-15T05:50:37;6.05;;;1.00;;
52512;SDS011;38422;53.172;6.974;2024-01-15T05:53:04;8.85;;;1.20;;
52512;SDS011;38422;53.172;6.974;2024-01-15T05:55:29;3.80;;;0.70;;
52512;SDS011;38422;53.172;6.974;2024-01-15T05:57:55;9.27;;;1.00;;
52512;SDS011;38422;53.172;6.974;2024-01-15T06:00:21;5.82;;;0.68;;
52512;SDS011;38422;53.172;6.974;2024-01-15T06:02:47;8.00;;;0.80;;
52512;SDS011;38422;53.172;6.974;2024-01-15T06:05:12;5.80;;;0.85;;
52512;SDS011;38422;53.172;6.974;2024-01-15T06:07:38;6.70;;;1.00;;
52512;SDS011;38422;53.172;6.974;2024-01-15T06:10:04;4.75;;;0.68;;
52512;SDS011;38422;53.172;6.974;2024-01-15T06:12:30;7.15;;;1.00;;
52512;SDS011;38422;53.172;6.974;2024-01-15T06:14:57;5.90;;;0.95;;
52512;SDS011;38422;53.172;6.974;2024-01-15T06:17:23;6.97;;;1.02;;
52512;SDS011;38422;53.172;6.974;2024-01-15T06:19:48;4.45;;;0.82;;
52512;SDS011;38422;53.172;6.974;2024-01-15T06:22:14;5.18;;;1.10;;
52512;SDS011;38422;53.172;6.974;2024-01-15T06:24:41;9.90;;;1.15;;
52512;SDS011;38422;53.172;6.974;2024-01-15T06:29:33;6.20;;;1.00;;
52512;SDS011;38422;53.172;6.974;2024-01-15T06:32:02;5.75;;;0.80;;
52512;SDS011;38422;53.172;6.974;2024-01-15T06:34:28;6.28;;;0.95;;
52512;SDS011;38422;53.172;6.974;2024-01-15T06:36:54;8.00;;;0.80;;
52512;SDS011;38422;53.172;6.974;2024-01-15T06:39:19;5.63;;;1.00;;
52512;SDS011;38422;53.172;6.974;2024-01-15T06:41:45;4.07;;;0.45;;
52512;SDS011;38422;53.172;6.974;2024-01-15T06:44:11;4.57;;;0.70;;
52512;SDS011;38422;53.172;6.974;2024-01-15T06:46:44;5.47;;;0.75;;
52512;SDS011;38422;53.172;6.974;2024-01-15T06:49:10;4.75;;;0.52;;
52512;SDS011;38422;53.172;6.974;2024-01-15T06:51:37;4.00;;;0.52;;
52512;SDS011;38422;53.172;6.974;2024-01-15T06:54:03;5.07;;;0.60;;
52512;SDS011;38422;53.172;6.974;2024-01-15T06:56:29;5.85;;;0.90;;
52512;SDS011;38422;53.172;6.974;2024-01-15T06:58:54;4.07;;;0.68;;
52512;SDS011;38422;53.172;6.974;2024-01-15T07:01:20;7.28;;;0.60;;
52512;SDS011;38422;53.172;6.974;2024-01-15T07:03:46;4.95;;;0.65;;
52512;SDS011;38422;53.172;6.974;2024-01-15T07:06:12;8.20;;;1.05;;
52512;SDS011;38422;53.172;6.974;2024-01-15T07:08:38;5.30;;;0.77;;
52512;SDS011;38422;53.172;6.974;2024-01-15T07:11:04;4.20;;;0.82;;
52512;SDS011;38422;53.172;6.974;2024-01-15T07:13:30;5.80;;;0.70;;
52512;SDS011;38422;53.172;6.974;2024-01-15T07:15:56;4.68;;;0.60;;
52512;SDS011;38422;53.172;6.974;2024-01-15T07:18:22;6.70;;;0.82;;
52512;SDS011;38422;53.172;6.974;2024-01-15T07:20:48;7.35;;;0.73;;
52512;SDS011;38422;53.172;6.974;2024-01-15T07:23:14;4.65;;;0.52;;
52512;SDS011;38422;53.172;6.974;2024-01-15T07:25:40;3.58;;;0.77;;
52512;SDS011;38422;53.172;6.974;2024-01-15T07:28:05;5.53;;;0.77;;
52512;SDS011;38422;53.172;6.974;2024-01-15T07:30:31;5.13;;;0.80;;
52512;SDS011;38422;53.172;6.974;2024-01-15T07:32:57;4.47;;;0.60;;
52512;SDS011;38422;53.172;6.974;2024-01-15T07:35:22;6.28;;;0.60;;
52512;SDS011;38422;53.172;6.974;2024-01-15T07:37:48;8.85;;;1.02;;
52512;SDS011;38422;53.172;6.974;2024-01-15T07:40:14;4.95;;;0.70;;
52512;SDS011;38422;53.172;6.974;2024-01-15T07:42:40;6.32;;;0.90;;
52512;SDS011;38422;53.172;6.974;2024-01-15T07:47:33;3.53;;;0.55;;
52512;SDS011;38422;53.172;6.974;2024-01-15T07:49:59;2.22;;;0.32;;
52512;SDS011;38422;53.172;6.974;2024-01-15T07:52:24;2.90;;;0.70;;
52512;SDS011;38422;53.172;6.974;2024-01-15T07:54:50;2.65;;;0.43;;
52512;SDS011;38422;53.172;6.974;2024-01-15T07:57:16;5.10;;;0.73;;
52512;SDS011;38422;53.172;6.974;2024-01-15T07:59:41;3.88;;;0.50;;
52512;SDS011;38422;53.172;6.974;2024-01-15T08:02:07;2.03;;;0.40;;
52512;SDS011;38422;53.172;6.974;2024-01-15T08:04:33;3.42;;;0.60;;
52512;SDS011;38422;53.172;6.974;2024-01-15T08:06:58;9.68;;;1.30;;
52512;SDS011;38422;53.172;6.974;2024-01-15T08:09:24;13.75;;;1.23;;
52512;SDS011;38422;53.172;6.974;2024-01-15T08:11:50;4.75;;;0.63;;
52512;SDS011;38422;53.172;6.974;2024-01-15T08:14:15;4.53;;;0.65;;
52512;SDS011;38422;53.172;6.974;2024-01-15T08:16:41;9.48;;;1.00;;
52512;SDS011;38422;53.172;6.974;2024-01-15T08:19:08;7.55;;;0.98;;
52512;SDS011;38422;53.172;6.974;2024-01-15T08:21:34;5.88;;;0.73;;
52512;SDS011;38422;53.172;6.974;2024-01-15T08:24:00;7.70;;;1.00;;
52512;SDS011;38422;53.172;6.974;2024-01-15T08:26:29;6.88;;;1.15;;
52512;SDS011;38422;53.172;6.974;2024-01-15T08:28:55;8.80;;;0.80;;
52512;SDS011;38422;53.172;6.974;2024-01-15T08:31:21;5.60;;;0.98;;
52512;SDS011;38422;53.172;6.974;2024-01-15T08:33:47;6.05;;;0.80;;
52512;SDS011;38422;53.172;6.974;2024-01-15T08:36:13;8.25;;;0.75;;
52512;SDS011;38422;53.172;6.974;2024-01-15T08:38:38;6.32;;;1.05;;
52512;SDS011;38422;53.172;6.974;2024-01-15T08:41:04;7.22;;;0.80;;
52512;SDS011;38422;53.172;6.974;2024-01-15T08:43:30;5.22;;;0.93;;
52512;SDS011;38422;53.172;6.974;2024-01-15T08:45:56;7.38;;;0.88;;
52512;SDS011;38422;53.172;6.974;2024-01-15T08:48:22;5.32;;;0.73;;
52512;SDS011;38422;53.172;6.974;2024-01-15T08:50:48;5.88;;;1.40;;
52512;SDS011;38422;53.172;6.974;2024-01-15T08:53:14;5.38;;;0.52;;
52512;SDS011;38422;53.172;6.974;2024-01-15T08:55:40;3.88;;;0.60;;
52512;SDS011;38422;53.172;6.974;2024-01-15T09:00:33;6.28;;;0.52;;
52512;SDS011;38422;53.172;6.974;2024-01-15T09:02:59;8.05;;;1.10;;
52512;SDS011;38422;53.172;6.974;2024-01-15T09:05:25;8.43;;;0.80;;
52512;SDS011;38422;53.172;6.974;2024-01-15T09:07:51;3.78;;;0.55;;
52512;SDS011;38422;53.172;6.974;2024-01-15T09:10:17;2.50;;;0.55;;
52512;SDS011;38422;53.172;6.974;2024-01-15T09:12:43;5.95;;;0.88;;
52512;SDS011;38422;53.172;6.974;2024-01-15T09:15:09;4.00;;;0.60;;
52512;SDS011;38422;53.172;6.974;2024-01-15T09:17:35;4.97;;;0.75;;
52512;SDS011;38422;53.172;6.974;2024-01-15T09:20:01;5.65;;;0.70;;
52512;SDS011;38422;53.172;6.974;2024-01-15T09:22:26;2.83;;;0.70;;
52512;SDS011;38422;53.172;6.974;2024-01-15T09:24:52;4.38;;;0.95;;
52512;SDS011;38422;53.172;6.974;2024-01-15T09:27:18;5.90;;;0.70;;
52512;SDS011;38422;53.172;6.974;2024-01-15T09:29:44;2.90;;;0.32;;
52512;SDS011;38422;53.172;6.974;2024-01-15T09:32:13;2.25;;;0.50;;
52512;SDS011;38422;53.172;6.974;2024-01-15T09:34:41;3.70;;;0.60;;
52512;SDS011;38422;53.172;6.974;2024-01-15T09:37:06;4.15;;;0.50;;
52512;SDS011;38422;53.172;6.974;2024-01-15T09:39:32;5.38;;;0.60;;
52512;SDS011;38422;53.172;6.974;2024-01-15T09:41:58;3.85;;;0.50;;
52512;SDS011;38422;53.172;6.974;2024-01-15T09:44:25;3.97;;;0.85;;
52512;SDS011;38422;53.172;6.974;2024-01-15T09:46:52;3.45;;;0.60;;
52512;SDS011;38422;53.172;6.974;2024-01-15T09:49:18;5.13;;;0.80;;
52512;SDS011;38422;53.172;6.974;2024-01-15T09:51:45;3.20;;;0.45;;
52512;SDS011;38422;53.172;6.974;2024-01-15T09:54:12;4.32;;;0.55;;
52512;SDS011;38422;53.172;6.974;2024-01-15T09:56:42;2.50;;;0.55;;
52512;SDS011;38422;53.172;6.974;2024-01-15T09:59:11;1.88;;;0.40;;
52512;SDS011;38422;53.172;6.974;2024-01-15T10:01:40;4.80;;;0.57;;
52512;SDS011;38422;53.172;6.974;2024-01-15T10:04:06;5.35;;;0.50;;
52512;SDS011;38422;53.172;6.974;2024-01-15T10:06:35;4.00;;;0.60;;
52512;SDS011;38422;53.172;6.974;2024-01-15T10:09:03;5.57;;;0.60;;
52512;SDS011;38422;53.172;6.974;2024-01-15T10:11:28;3.90;;;0.55;;
52512;SDS011;38422;53.172;6.974;2024-01-15T10:13:56;2.83;;;0.60;;
52512;SDS011;38422;53.172;6.974;2024-01-15T10:16:22;3.28;;;0.60;;
52512;SDS011;38422;53.172;6.974;2024-01-15T10:18:49;4.07;;;0.60;;
52512;SDS011;38422;53.172;6.974;2024-01-15T10:21:15;5.85;;;0.70;;
52512;SDS011;38422;53.172;6.974;2024-01-15T10:23:41;4.03;;;0.70;;
52512;SDS011;38422;53.172;6.974;2024-01-15T10:26:07;2.65;;;0.47;;
52512;SDS011;38422;53.172;6.974;2024-01-15T10:28:33;5.20;;;0.47;;
52512;SDS011;38422;53.172;6.974;2024-01-15T10:31:00;4.05;;;0.60;;
52512;SDS011;38422;53.172;6.974;2024-01-15T10:33:27;5.25;;;0.70;;
52512;SDS011;38422;53.172;6.974;2024-01-15T10:35:53;6.38;;;0.50;;
52512;SDS011;38422;53.172;6.974;2024-01-15T10:38:23;5.20;;;0.75;;
52512;SDS011;38422;53.172;6.974;2024-01-15T10:43:19;6.47;;;1.38;;
52512;SDS011;38422;53.172;6.974;2024-01-15T10:45:45;4.03;;;0.57;;
52512;SDS011;38422;53.172;6.974;2024-01-15T10:48:12;4.77;;;0.90;;
52512;SDS011;38422;53.172;6.974;2024-01-15T10:50:39;1.80;;;0.60;;
52512;SDS011;38422;53.172;6.974;2024-01-15T10:53:05;6.95;;;1.00;;
52512;SDS011;38422;53.172;6.974;2024-01-15T10:55:31;6.28;;;0.63;;
52512;SDS011;38422;53.172;6.974;2024-01-15T10:57:58;4.65;;;0.80;;
52512;SDS011;38422;53.172;6.974;2024-01-15T11:00:26;3.45;;;0.50;;
52512;SDS011;38422;53.172;6.974;2024-01-15T11:02:52;7.57;;;1.13;;
52512;SDS011;38422;53.172;6.974;2024-01-15T11:05:32;3.75;;;1.13;;
52512;SDS011;38422;53.172;6.974;2024-01-15T11:08:01;4.82;;;0.80;;
52512;SDS011;38422;53.172;6.974;2024-01-15T11:10:45;4.28;;;0.70;;
52512;SDS011;38422;53.172;6.974;2024-01-15T11:16:01;3.65;;;0.60;;
52512;SDS011;38422;53.172;6.974;2024-01-15T11:18:35;5.13;;;0.90;;
52512;SDS011;38422;53.172;6.974;2024-01-15T11:29:41;7.60;;;0.80;;
52512;SDS011;38422;53.172;6.974;2024-01-15T11:34:20;5.53;;;0.85;;
52512;SDS011;38422;53.172;6.974;2024-01-15T11:37:00;6.57;;;0.70;;
52512;SDS011;38422;53.172;6.974;2024-01-15T11:41:56;4.93;;;0.80;;
52512;SDS011;38422;53.172;6.974;2024-01-15T11:44:22;3.08;;;0.50;;
52512;SDS011;38422;53.172;6.974;2024-01-15T11:47:10;3.95;;;0.60;;
52512;SDS011;38422;53.172;6.974;2024-01-15T11:52:18;2.28;;;0.40;;
52512;SDS011;38422;53.172;6.974;2024-01-15T11:54:48;4.82;;;0.75;;
52512;SDS011;38422;53.172;6.974;2024-01-15T11:57:46;6.40;;;1.20;;
52512;SDS011;38422;53.172;6.974;2024-01-15T12:00:16;5.18;;;0.68;;
52512;SDS011;38422;53.172;6.974;2024-01-15T12:02:42;1.30;;;0.32;;
52512;SDS011;38422;53.172;6.974;2024-01-15T12:05:09;3.53;;;1.02;;
52512;SDS011;38422;53.172;6.974;2024-01-15T12:07:38;2.08;;;0.40;;
52512;SDS011;38422;53.172;6.974;2024-01-15T12:10:10;5.68;;;1.25;;
52512;SDS011;38422;53.172;6.974;2024-01-15T12:15:10;3.67;;;0.60;;
52512;SDS011;38422;53.172;6.974;2024-01-15T12:17:36;2.22;;;0.55;;
52512;SDS011;38422;53.172;6.974;2024-01-15T12:20:03;4.53;;;0.63;;
52512;SDS011;38422;53.172;6.974;2024-01-15T12:22:30;1.98;;;0.52;;
52512;SDS011;38422;53.172;6.974;2024-01-15T12:24:55;2.90;;;0.40;;
52512;SDS011;38422;53.172;6.974;2024-01-15T12:27:23;4.28;;;0.90;;
52512;SDS011;38422;53.172;6.974;2024-01-15T12:29:49;4.35;;;0.60;;
52512;SDS011;38422;53.172;6.974;2024-01-15T12:32:14;2.67;;;0.60;;
52512;SDS011;38422;53.172;6.974;2024-01-15T12:34:40;2.28;;;0.68;;
52512;SDS011;38422;53.172;6.974;2024-01-15T12:37:09;4.25;;;0.50;;
52512;SDS011;38422;53.172;6.974;2024-01-15T12:39:36;2.58;;;0.20;;
52512;SDS011;38422;53.172;6.974;2024-01-15T12:42:02;2.83;;;0.40;;
52512;SDS011;38422;53.172;6.974;2024-01-15T12:44:28;3.67;;;0.40;;
52512;SDS011;38422;53.172;6.974;2024-01-15T12:46:54;5.35;;;1.52;;
52512;SDS011;38422;53.172;6.974;2024-01-15T12:49:21;0.95;;;0.30;;
52512;SDS011;38422;53.172;6.974;2024-01-15T12:51:52;1.95;;;0.60;;
52512;SDS011;38422;53.172;6.974;2024-01-15T12:54:26;3.65;;;0.70;;
52512;SDS011;38422;53.172;6.974;2024-01-15T12:56:52;3.45;;;0.57;;
52512;SDS011;38422;53.172;6.974;2024-01-15T12:59:18;2.15;;;0.40;;
52512;SDS011;38422;53.172;6.974;2024-01-15T13:01:44;3.67;;;0.30;;
52512;SDS011;38422;53.172;6.974;2024-01-15T13:06:37;5.85;;;1.05;;
52512;SDS011;38422;53.172;6.974;2024-01-15T13:09:03;1.95;;;0.60;;
52512;SDS011;38422;53.172;6.974;2024-01-15T13:11:32;3.47;;;0.70;;
52512;SDS011;38422;53.172;6.974;2024-01-15T13:13:58;5.07;;;0.50;;
52512;SDS011;38422;53.172;6.974;2024-01-15T13:16:23;2.53;;;0.20;;
52512;SDS011;38422;53.172;6.974;2024-01-15T13:18:52;4.80;;;0.70;;
52512;SDS011;38422;53.172;6.974;2024-01-15T13:21:17;5.72;;;0.70;;
52512;SDS011;38422;53.172;6.974;2024-01-15T13:23:43;5.15;;;0.60;;
52512;SDS011;38422;53.172;6.974;2024-01-15T13:26:11;5.25;;;0.40;;
52512;SDS011;38422;53.172;6.974;2024-01-15T13:28:37;3.97;;;0.30;;
52512;SDS011;38422;53.172;6.974;2024-01-15T13:31:03;1.98;;;0.40;;
52512;SDS011;38422;53.172;6.974;2024-01-15T13:33:29;2.90;;;0.50;;
52512;SDS011;38422;53.172;6.974;2024-01-15T13:35:55;3.17;;;0.60;;
52512;SDS011;38422;53.172;6.974;2024-01-15T13:38:21;4.13;;;0.57;;
52512;SDS011;38422;53.172;6.974;2024-01-15T13:40:47;3.00;;;0.55;;
52512;SDS011;38422;53.172;6.974;2024-01-15T13:43:13;3.05;;;0.50;;
52512;SDS011;38422;53.172;6.974;2024-01-15T13:45:40;4.82;;;0.95;;
52512;SDS011;38422;53.172;6.974;2024-01-15T13:48:09;5.40;;;1.00;;
52512;SDS011;38422;53.172;6.974;2024-01-15T13:50:37;3.53;;;0.68;;
52512;SDS011;38422;53.172;6.974;2024-01-15T13:53:03;2.88;;;0.63;;
52512;SDS011;38422;53.172;6.974;2024-01-15T13:55:29;3.60;;;0.75;;
52512;SDS011;38422;53.172;6.974;2024-01-15T13:57:58;6.68;;;0.90;;
52512;SDS011;38422;53.172;6.974;2024-01-15T14:00:24;3.35;;;0.52;;
52512;SDS011;38422;53.172;6.974;2024-01-15T14:02:49;2.30;;;0.40;;
52512;SDS011;38422;53.172;6.974;2024-01-15T14:05:15;4.57;;;0.70;;
52512;SDS011;38422;53.172;6.974;2024-01-15T14:07:41;3.03;;;0.50;;
52512;SDS011;38422;53.172;6.974;2024-01-15T14:10:10;2.65;;;0.45;;
52512;SDS011;38422;53.172;6.974;2024-01-15T14:12:36;3.95;;;0.40;;
52512;SDS011;38422;53.172;6.974;2024-01-15T14:15:02;2.80;;;0.40;;
52512;SDS011;38422;53.172;6.974;2024-01-15T14:17:28;3.23;;;0.40;;
52512;SDS011;38422;53.172;6.974;2024-01-15T14:19:54;2.25;;;0.43;;
52512;SDS011;38422;53.172;6.974;2024-01-15T14:22:22;1.55;;;0.22;;
52512;SDS011;38422;53.172;6.974;2024-01-15T14:24:48;1.05;;;0.20;;
52512;SDS011;38422;53.172;6.974;2024-01-15T14:27:14;2.15;;;0.40;;
52512;SDS011;38422;53.172;6.974;2024-01-15T14:29:40;3.00;;;0.85;;
52512;SDS011;38422;53.172;6.974;2024-01-15T14:32:06;0.30;;;0.20;;
52512;SDS011;38422;53.172;6.974;2024-01-15T14:34:32;4.22;;;0.40;;
52512;SDS011;38422;53.172;6.974;2024-01-15T14:36:57;5.00;;;0.40;;
52512;SDS011;38422;53.172;6.974;2024-01-15T14:39:23;2.15;;;0.30;;
52512;SDS011;38422;53.172;6.974;2024-01-15T14:41:49;3.35;;;0.35;;
52512;SDS011;38422;53.172;6.974;2024-01-15T14:44:15;2.97;;;0.30;;
52512;SDS011;38422;53.172;6.974;2024-01-15T14:46:44;2.40;;;0.50;;
52512;SDS011;38422;53.172;6.974;2024-01-15T14:49:11;4.85;;;0.80;;
52512;SDS011;38422;53.172;6.974;2024-01-15T14:51:36;4.50;;;0.52;;
52512;SDS011;38422;53.172;6.974;2024-01-15T14:54:02;4.43;;;0.82;;
52512;SDS011;38422;53.172;6.974;2024-01-15T14:56:28;1.77;;;0.40;;
52512;SDS011;38422;53.172;6.974;2024-01-15T14:58:54;4.18;;;0.60;;
52512;SDS011;38422;53.172;6.974;2024-01-15T15:01:20;3.50;;;0.52;;
52512;SDS011;38422;53.172;6.974;2024-01-15T15:03:48;3.58;;;0.70;;
52512;SDS011;38422;53.172;6.974;2024-01-15T15:06:13;3.17;;;0.35;;
52512;SDS011;38422;53.172;6.974;2024-01-15T15:08:39;6.43;;;0.52;;
52512;SDS011;38422;53.172;6.974;2024-01-15T15:11:06;4.60;;;0.40;;
52512;SDS011;38422;53.172;6.974;2024-01-15T15:13:32;3.72;;;0.65;;